Time;durP1;ratioP1;P1;durP2;ratioP2;P2;SDS_P1;SDS_P2;PMS_P1;PMS_P2;Temp;Humidity;BMP_temperature;BMP_pressure;BME280_temperature;BME280_humidity;BME280_pressure;Samples;Min_cycle;Max_cycle;Signal;HPM_P1;HPM_P2
2021/10/04 00:00:46;;;;;;;1.90;1.27;;;24.10;51.00;;;;;;5060964;28;20438;-71
2021/10/04 00:03:11;;;;;;;2.27;1.50;;;24.00;51.00;;;;;;5062256;28;20398;-74
2021/10/04 00:05:37;;;;;;;1.65;1.35;;;24.00;51.00;;;;;;5061646;28;20880;-74
2021/10/04 00:08:03;;;;;;;2.37;1.30;;;24.00;51.10;;;;;;5061689;28;20410;-73
2021/10/04 00:10:29;;;;;;;2.08;1.40;;;24.00;51.10;;;;;;5061562;28;20425;-73
2021/10/04 00:12:54;;;;;;;2.33;1.47;;;24.00;51.10;;;;;;5060943;28;20380;-72
2021/10/04 00:15:22;;;;;;;2.17;1.60;;;24.00;51.20;;;;;;5060984;28;20419;-74
2021/10/04 00:17:48;;;;;;;1.70;1.40;;;24.00;51.20;;;;;;5061298;28;20380;-73
2021/10/04 00:20:16;;;;;;;2.13;1.35;;;24.00;51.20;;;;;;5061128;28;20926;-68
2021/10/04 00:22:42;;;;;;;2.22;1.63;;;24.00;51.20;;;;;;5061983;28;20437;-74
2021/10/04 00:25:10;;;;;;;2.38;1.60;;;24.00;51.30;;;;;;5065320;28;20433;-74
2021/10/04 00:27:36;;;;;;;2.20;1.70;;;24.00;51.40;;;;;;5064888;28;20398;-72
2021/10/04 00:30:05;;;;;;;1.90;1.40;;;24.00;51.40;;;;;;5064951;28;20484;-74
2021/10/04 00:32:37;;;;;;;1.95;1.50;;;23.90;51.40;;;;;;5065035;28;20415;-69
2021/10/04 00:35:04;;;;;;;3.25;1.67;;;23.90;51.40;;;;;;5054853;28;20423;-74
2021/10/04 00:37:31;;;;;;;3.03;1.60;;;23.90;51.40;;;;;;5064376;28;20533;-68
2021/10/04 00:39:57;;;;;;;1.90;1.40;;;23.90;51.40;;;;;;5064282;28;20388;-69
2021/10/04 00:42:23;;;;;;;2.10;1.45;;;23.90;51.40;;;;;;5065035;28;20387;-69
2021/10/04 00:44:50;;;;;;;2.70;1.50;;;23.90;51.50;;;;;;5064696;28;20388;-73
2021/10/04 00:47:18;;;;;;;2.47;1.70;;;23.90;51.50;;;;;;5064467;28;20391;-74
2021/10/04 00:49:44;;;;;;;2.45;1.65;;;23.90;51.50;;;;;;5064546;28;20398;-71
2021/10/04 00:52:10;;;;;;;2.67;1.70;;;23.90;51.50;;;;;;5064669;28;20989;-69
2021/10/04 00:54:37;;;;;;;1.75;1.45;;;23.90;51.60;;;;;;5064278;28;20403;-71
2021/10/04 00:57:04;;;;;;;1.88;1.48;;;23.90;51.60;;;;;;5064378;28;20488;-73
2021/10/04 00:59:31;;;;;;;2.13;1.50;;;23.90;51.60;;;;;;5064348;28;20744;-68
2021/10/04 01:01:57;;;;;;;1.80;1.40;;;23.90;51.70;;;;;;5064152;28;20441;-71
2021/10/04 01:04:26;;;;;;;2.28;1.67;;;23.90;51.60;;;;;;5063937;28;20470;-69
2021/10/04 01:06:56;;;;;;;2.65;1.63;;;23.80;51.60;;;;;;5064065;28;20380;-72
2021/10/04 01:09:27;;;;;;;1.98;1.60;;;23.80;51.60;;;;;;5063892;28;20416;-73
2021/10/04 01:11:56;;;;;;;2.20;1.50;;;23.90;51.70;;;;;;5062544;28;20421;-69
2021/10/04 01:14:23;;;;;;;2.92;1.70;;;23.80;51.60;;;;;;5064067;28;20392;-69
2021/10/04 01:16:49;;;;;;;2.17;1.42;;;23.80;51.70;;;;;;5064239;28;20453;-72
2021/10/04 01:19:15;;;;;;;2.40;1.40;;;23.90;51.80;;;;;;5064216;28;20388;-68
2021/10/04 01:21:41;;;;;;;2.45;1.60;;;23.90;51.80;;;;;;5063686;28;20398;-73
2021/10/04 01:24:08;;;;;;;2.00;1.58;;;23.80;51.70;;;;;;5063985;28;20376;-68
2021/10/04 01:26:35;;;;;;;2.28;1.50;;;23.80;51.70;;;;;;5058591;28;20395;-74
2021/10/04 01:29:01;;;;;;;2.10;1.52;;;23.80;51.80;;;;;;5063985;28;20819;-73
2021/10/04 01:31:27;;;;;;;2.00;1.45;;;23.80;51.80;;;;;;5054182;28;20396;-73
2021/10/04 01:33:55;;;;;;;2.03;1.60;;;23.80;51.80;;;;;;5047879;28;20391;-68
2021/10/04 01:36:25;;;;;;;1.98;1.60;;;23.80;51.80;;;;;;5063002;28;20424;-68
2021/10/04 01:38:51;;;;;;;1.88;1.50;;;23.80;51.90;;;;;;5063888;28;20383;-69
2021/10/04 01:41:17;;;;;;;2.10;1.55;;;23.70;51.80;;;;;;5063948;28;21128;-73
2021/10/04 01:43:43;;;;;;;2.30;1.75;;;23.80;51.90;;;;;;5063180;28;20537;-69
2021/10/04 01:46:10;;;;;;;2.60;1.70;;;23.80;51.90;;;;;;5063439;28;20407;-69
2021/10/04 01:48:36;;;;;;;2.42;1.80;;;23.80;51.90;;;;;;5063117;28;20387;-69
2021/10/04 01:51:02;;;;;;;2.25;1.60;;;23.70;51.90;;;;;;5063680;28;20388;-73
2021/10/04 01:53:28;;;;;;;2.25;1.60;;;23.80;51.90;;;;;;5063165;28;20876;-68
2021/10/04 01:55:54;;;;;;;2.05;1.60;;;23.80;52.00;;;;;;5062855;28;20415;-68
2021/10/04 01:58:20;;;;;;;2.05;1.58;;;23.70;51.90;;;;;;5063441;28;20380;-71
2021/10/04 02:00:47;;;;;;;2.10;1.60;;;23.70;52.00;;;;;;5063160;28;20420;-68
2021/10/04 02:03:13;;;;;;;2.55;1.98;;;23.80;52.00;;;;;;5063108;28;20434;-69
2021/10/04 02:05:39;;;;;;;2.13;1.60;;;23.70;52.00;;;;;;5062925;28;20415;-68
2021/10/04 02:08:06;;;;;;;2.30;1.58;;;23.70;52.00;;;;;;5062266;28;20967;-69
2021/10/04 02:10:38;;;;;;;2.08;1.60;;;23.70;52.00;;;;;;5050232;28;20474;-73
2021/10/04 02:13:06;;;;;;;2.50;1.70;;;23.70;52.00;;;;;;5063146;28;20387;-69
2021/10/04 02:15:33;;;;;;;2.50;1.90;;;23.70;52.10;;;;;;5062938;28;20473;-70
2021/10/04 02:18:01;;;;;;;2.00;1.60;;;23.70;52.10;;;;;;5062492;28;20534;-74
2021/10/04 02:20:30;;;;;;;2.30;1.60;;;23.70;52.10;;;;;;5062847;28;20475;-73
2021/10/04 02:22:56;;;;;;;2.13;1.65;;;23.70;52.10;;;;;;5050360;28;20475;-72
2021/10/04 02:25:23;;;;;;;2.22;1.50;;;23.70;52.10;;;;;;5062739;28;20392;-70
2021/10/04 02:27:50;;;;;;;2.30;1.70;;;23.70;52.20;;;;;;5062081;28;20414;-74
2021/10/04 02:30:22;;;;;;;2.05;1.60;;;23.70;52.20;;;;;;5062725;28;20391;-73
2021/10/04 02:32:48;;;;;;;2.50;1.70;;;23.70;52.20;;;;;;5062425;28;20383;-75
2021/10/04 02:35:14;;;;;;;1.98;1.60;;;23.60;52.10;;;;;;5064621;28;20415;-70
2021/10/04 02:37:41;;;;;;;2.67;1.50;;;23.70;52.20;;;;;;5063055;28;20989;-75
2021/10/04 02:40:10;;;;;;;1.98;1.58;;;23.60;52.10;;;;;;5064035;28;20396;-73
2021/10/04 02:42:36;;;;;;;2.07;1.67;;;23.60;52.20;;;;;;5062037;28;20431;-74
2021/10/04 02:45:05;;;;;;;2.22;1.55;;;23.60;52.20;;;;;;5062699;28;20954;-69
2021/10/04 02:47:31;;;;;;;2.07;1.70;;;23.60;52.20;;;;;;5062588;28;20434;-74
2021/10/04 02:50:00;;;;;;;2.60;1.70;;;23.60;52.20;;;;;;5045548;28;20444;-69
2021/10/04 02:52:26;;;;;;;2.50;1.70;;;23.60;52.20;;;;;;5061834;28;20384;-75
2021/10/04 02:54:52;;;;;;;2.53;1.60;;;23.60;52.20;;;;;;5061925;28;20414;-75
2021/10/04 02:57:18;;;;;;;2.10;1.50;;;23.60;52.20;;;;;;5062140;28;20471;-74
2021/10/04 02:59:44;;;;;;;1.95;1.40;;;23.60;52.20;;;;;;5062417;28;20392;-69
2021/10/04 03:02:09;;;;;;;2.72;1.70;;;23.60;52.20;;;;;;5061872;28;20442;-69
2021/10/04 03:04:37;;;;;;;2.27;1.50;;;23.60;52.80;;;;;;5062332;28;20372;-69
2021/10/04 03:07:03;;;;;;;3.28;1.88;;;23.60;52.70;;;;;;5062033;28;21173;-69
2021/10/04 03:09:29;;;;;;;2.50;1.90;;;23.60;52.90;;;;;;5061965;28;20408;-73
2021/10/04 03:11:55;;;;;;;2.65;1.88;;;23.60;52.90;;;;;;5053000;28;20455;-73
2021/10/04 03:14:20;;;;;;;2.72;1.83;;;23.60;52.70;;;;;;5057054;28;20426;-74
2021/10/04 03:16:46;;;;;;;3.67;2.05;;;23.60;53.20;;;;;;5063046;28;20800;-72
2021/10/04 03:19:12;;;;;;;6.75;2.13;;;23.60;53.70;;;;;;5061987;28;20384;-73
2021/10/04 03:21:39;;;;;;;7.10;2.17;;;23.60;55.00;;;;;;5062171;28;21401;-73
2021/10/04 03:24:05;;;;;;;4.97;2.22;;;23.60;55.50;;;;;;5061220;28;20470;-74
2021/10/04 03:26:31;;;;;;;6.85;2.00;;;23.70;55.70;;;;;;5061787;28;20498;-68
2021/10/04 03:28:57;;;;;;;5.13;2.10;;;23.70;56.20;;;;;;5062190;28;20383;-74
2021/10/04 03:31:23;;;;;;;3.85;2.03;;;23.70;56.20;;;;;;5062410;28;20380;-72
2021/10/04 03:33:49;;;;;;;9.27;2.47;;;23.70;56.30;;;;;;5060880;28;20391;-73
2021/10/04 03:36:15;;;;;;;5.70;2.10;;;23.70;55.90;;;;;;5049636;28;20423;-74
2021/10/04 03:38:40;;;;;;;5.03;2.00;;;23.70;56.30;;;;;;5061872;28;20395;-71
2021/10/04 03:41:06;;;;;;;6.18;2.45;;;23.70;57.00;;;;;;5061757;28;20395;-75
2021/10/04 03:43:32;;;;;;;4.87;2.20;;;23.70;56.90;;;;;;5061831;28;21254;-73
2021/10/04 03:45:57;;;;;;;6.03;2.17;;;23.80;56.40;;;;;;5062908;28;20399;-74
2021/10/04 03:48:23;;;;;;;5.47;2.20;;;23.80;56.30;;;;;;5062597;28;20399;-71
2021/10/04 03:50:49;;;;;;;5.00;1.90;;;23.70;56.70;;;;;;5062409;28;20891;-73
2021/10/04 03:53:14;;;;;;;4.40;1.92;;;23.80;55.70;;;;;;5062514;28;20891;-74
2021/10/04 03:55:40;;;;;;;4.68;2.30;;;23.70;55.20;;;;;;5062492;28;20775;-70
2021/10/04 03:58:06;;;;;;;4.05;2.17;;;23.70;54.60;;;;;;5060597;28;20410;-71
2021/10/04 04:00:32;;;;;;;5.60;2.03;;;23.70;54.50;;;;;;5054537;28;20409;-72
2021/10/04 04:02:57;;;;;;;6.00;1.90;;;23.60;54.60;;;;;;5065546;28;20391;-71
2021/10/04 04:05:23;;;;;;;6.28;2.05;;;23.60;54.40;;;;;;5059568;28;20396;-73
2021/10/04 04:07:49;;;;;;;6.78;2.30;;;23.60;54.10;;;;;;5065206;28;20484;-71
2021/10/04 04:10:16;;;;;;;4.00;2.08;;;23.60;54.10;;;;;;5065069;28;20392;-71
2021/10/04 04:12:43;;;;;;;6.55;1.98;;;23.60;53.70;;;;;;5065436;28;20651;-72
2021/10/04 04:15:10;;;;;;;6.68;2.40;;;23.60;53.60;;;;;;5065155;28;20426;-73
2021/10/04 04:17:36;;;;;;;7.00;2.10;;;23.60;53.60;;;;;;5065165;28;20419;-70
2021/10/04 04:20:03;;;;;;;4.18;1.83;;;23.60;53.40;;;;;;5064918;28;20391;-74
2021/10/04 04:22:29;;;;;;;4.45;2.20;;;23.60;53.20;;;;;;5065142;28;20384;-74
2021/10/04 04:24:56;;;;;;;4.23;2.10;;;23.60;53.00;;;;;;5064811;28;20387;-74
2021/10/04 04:27:22;;;;;;;3.72;2.10;;;23.60;53.10;;;;;;5065177;28;20380;-74
2021/10/04 04:29:48;;;;;;;5.20;1.83;;;23.60;53.30;;;;;;5064797;28;20388;-73
2021/10/04 04:32:14;;;;;;;3.13;1.77;;;23.60;53.30;;;;;;5062436;28;20788;-69
2021/10/04 04:34:40;;;;;;;2.83;1.80;;;23.60;53.30;;;;;;5066269;28;20416;-70
2021/10/04 04:37:06;;;;;;;3.20;1.95;;;23.60;53.20;;;;;;5066444;28;20483;-72
2021/10/04 04:39:34;;;;;;;4.40;2.00;;;23.60;53.00;;;;;;5065148;28;20430;-69
2021/10/04 04:42:00;;;;;;;7.43;2.13;;;23.50;52.50;;;;;;5065188;28;20858;-71
2021/10/04 04:44:26;;;;;;;2.38;1.70;;;23.50;52.60;;;;;;5064661;28;20475;-74
2021/10/04 04:46:52;;;;;;;3.70;1.60;;;23.50;52.50;;;;;;5062764;28;20391;-69
2021/10/04 04:49:18;;;;;;;3.22;1.90;;;23.50;52.90;;;;;;5063033;28;20395;-70
2021/10/04 04:51:44;;;;;;;5.80;2.15;;;23.50;53.40;;;;;;5057274;28;20433;-74
2021/10/04 04:54:11;;;;;;;5.32;2.08;;;23.60;53.70;;;;;;5065711;28;21199;-74
2021/10/04 04:56:37;;;;;;;5.38;1.90;;;23.60;55.10;;;;;;5064723;28;20419;-74
2021/10/04 04:59:02;;;;;;;4.03;1.70;;;23.60;54.00;;;;;;5064632;28;20390;-74
2021/10/04 05:01:28;;;;;;;3.53;1.60;;;23.60;53.40;;;;;;5056265;28;20487;-74
2021/10/04 05:03:53;;;;;;;3.55;2.08;;;23.60;53.20;;;;;;5063763;28;20387;-70
2021/10/04 05:06:19;;;;;;;4.68;1.90;;;23.50;53.00;;;;;;5064690;28;20403;-69
2021/10/04 05:08:45;;;;;;;3.10;1.93;;;23.50;53.00;;;;;;5063026;28;20407;-76
2021/10/04 05:11:12;;;;;;;2.90;2.10;;;23.50;53.00;;;;;;5063430;28;21000;-69
2021/10/04 05:13:37;;;;;;;4.20;1.80;;;23.50;53.30;;;;;;5063814;28;20422;-71
2021/10/04 05:16:03;;;;;;;5.60;1.90;;;23.50;53.10;;;;;;5063731;28;20915;-76
2021/10/04 05:18:29;;;;;;;4.25;1.92;;;23.50;53.00;;;;;;5064070;28;20469;-71
2021/10/04 05:20:55;;;;;;;3.60;1.80;;;23.50;53.20;;;;;;5065365;28;20394;-76
2021/10/04 05:23:20;;;;;;;2.50;1.60;;;23.40;53.20;;;;;;5064339;28;20383;-74
2021/10/04 05:25:46;;;;;;;4.57;1.70;;;23.50;53.10;;;;;;5063759;28;20391;-75
2021/10/04 05:28:12;;;;;;;3.35;1.85;;;23.50;53.10;;;;;;5064087;28;20398;-70
2021/10/04 05:30:38;;;;;;;4.00;1.70;;;23.40;52.80;;;;;;5053629;28;20490;-75
2021/10/04 05:33:04;;;;;;;5.88;2.20;;;23.40;53.40;;;;;;5064105;28;20395;-71
2021/10/04 05:35:29;;;;;;;6.97;1.93;;;23.40;53.10;;;;;;5063791;28;20415;-75
2021/10/04 05:37:56;;;;;;;3.30;2.10;;;23.40;53.00;;;;;;5055271;28;20411;-75
2021/10/04 05:40:22;;;;;;;4.25;1.85;;;23.40;53.10;;;;;;5065156;28;20380;-74
2021/10/04 05:42:47;;;;;;;3.33;1.42;;;23.40;53.30;;;;;;5061268;28;20400;-75
2021/10/04 05:45:15;;;;;;;4.70;1.53;;;23.40;53.40;;;;;;5052117;28;20843;-75
2021/10/04 05:47:42;;;;;;;5.03;1.50;;;23.40;53.70;;;;;;5050749;28;20403;-75
2021/10/04 05:50:08;;;;;;;2.40;1.45;;;23.40;53.50;;;;;;5050861;28;20885;-74
2021/10/04 05:52:34;;;;;;;4.38;1.63;;;23.40;53.30;;;;;;5094422;28;20396;-75
2021/10/04 05:55:00;;;;;;;3.23;1.60;;;23.40;53.00;;;;;;5061825;28;21017;-75
2021/10/04 05:57:26;;;;;;;2.78;1.50;;;23.40;53.10;;;;;;5062129;28;20387;-75
2021/10/04 05:59:53;;;;;;;3.55;1.73;;;23.40;52.80;;;;;;5060711;28;20404;-74
2021/10/04 06:02:19;;;;;;;3.28;1.70;;;23.40;53.00;;;;;;5057496;28;20404;-75
2021/10/04 06:04:45;;;;;;;2.30;1.50;;;23.40;53.20;;;;;;5063351;28;20398;-74
2021/10/04 06:07:10;;;;;;;3.25;1.50;;;23.40;53.40;;;;;;5062108;28;20764;-75
2021/10/04 06:09:36;;;;;;;2.87;1.40;;;23.40;53.50;;;;;;5060975;28;20400;-75
2021/10/04 06:12:02;;;;;;;3.50;2.03;;;23.40;53.00;;;;;;5055796;28;20446;-75
2021/10/04 06:14:28;;;;;;;3.23;1.87;;;23.40;53.10;;;;;;5054327;28;20475;-75
2021/10/04 06:16:55;;;;;;;2.60;1.60;;;23.40;53.00;;;;;;5062173;28;20422;-75
2021/10/04 06:19:22;;;;;;;3.87;1.83;;;23.40;52.80;;;;;;5061359;28;20843;-74
2021/10/04 06:21:48;;;;;;;3.00;1.60;;;23.30;52.80;;;;;;5061981;28;20387;-74
2021/10/04 06:24:14;;;;;;;4.47;1.90;;;23.40;52.90;;;;;;5050722;28;20499;-75
2021/10/04 06:26:40;;;;;;;3.43;1.90;;;23.40;52.90;;;;;;5061375;28;21079;-75
2021/10/04 06:29:06;;;;;;;4.30;1.65;;;23.40;52.90;;;;;;5048716;28;20411;-74
2021/10/04 06:31:32;;;;;;;3.70;1.73;;;23.30;52.80;;;;;;5062611;28;20986;-74
2021/10/04 06:33:57;;;;;;;2.97;1.70;;;23.30;52.80;;;;;;5062556;28;20470;-75
2021/10/04 06:36:23;;;;;;;2.50;1.60;;;23.40;52.80;;;;;;5054733;28;20518;-75
2021/10/04 06:38:49;;;;;;;2.53;1.87;;;23.30;52.90;;;;;;5062474;28;20383;-74
2021/10/04 06:41:15;;;;;;;2.60;1.50;;;23.30;52.80;;;;;;5053496;28;20990;-75
2021/10/04 06:43:40;;;;;;;3.30;1.57;;;23.30;52.80;;;;;;5062619;28;20392;-74
2021/10/04 06:46:08;;;;;;;2.17;1.67;;;23.30;52.80;;;;;;5062298;28;20744;-74
2021/10/04 06:48:38;;;;;;;2.60;1.45;;;23.30;52.80;;;;;;5061831;28;20504;-74
2021/10/04 06:51:05;;;;;;;2.80;1.67;;;23.30;52.80;;;;;;5062506;28;20947;-75
2021/10/04 06:53:31;;;;;;;2.25;1.40;;;23.30;52.80;;;;;;5062594;28;20395;-75
2021/10/04 06:55:57;;;;;;;2.08;1.30;;;23.30;52.80;;;;;;5062211;28;20419;-74
2021/10/04 06:58:23;;;;;;;2.60;1.63;;;23.30;52.80;;;;;;5062217;28;20592;-75
2021/10/04 07:00:48;;;;;;;2.65;1.90;;;23.30;52.70;;;;;;5051034;28;20404;-75
2021/10/04 07:03:14;;;;;;;3.33;1.50;;;23.30;52.70;;;;;;5062101;28;20922;-74
2021/10/04 07:05:42;;;;;;;2.60;1.30;;;23.30;52.70;;;;;;5060601;28;20436;-75
2021/10/04 07:08:08;;;;;;;3.05;1.60;;;23.30;52.80;;;;;;5055099;28;20396;-74
2021/10/04 07:10:34;;;;;;;3.05;1.83;;;23.30;52.70;;;;;;5062175;28;20396;-74
2021/10/04 07:13:00;;;;;;;2.42;1.80;;;23.30;52.80;;;;;;5062485;28;20379;-74
2021/10/04 07:15:25;;;;;;;2.40;1.60;;;23.30;52.70;;;;;;5047871;28;20428;-74
2021/10/04 07:17:51;;;;;;;3.88;1.80;;;23.30;52.80;;;;;;5047661;28;21039;-75
2021/10/04 07:20:17;;;;;;;2.50;1.60;;;23.30;52.80;;;;;;5061785;28;20392;-74
2021/10/04 07:22:43;;;;;;;2.30;1.60;;;23.30;52.80;;;;;;5062414;28;20467;-75
2021/10/04 07:25:10;;;;;;;1.88;1.50;;;23.30;52.80;;;;;;5061912;28;20419;-75
2021/10/04 07:27:36;;;;;;;3.10;1.40;;;23.30;52.80;;;;;;5062100;28;20421;-74
2021/10/04 07:30:04;;;;;;;2.20;1.73;;;23.30;52.80;;;;;;5060812;28;20396;-75
2021/10/04 07:32:30;;;;;;;3.15;1.50;;;23.30;52.80;;;;;;5094962;28;20394;-75
2021/10/04 07:34:55;;;;;;;2.90;1.85;;;23.30;52.90;;;;;;5051184;28;20411;-75
2021/10/04 07:37:21;;;;;;;3.13;1.80;;;23.30;53.00;;;;;;5050178;28;20933;-75
2021/10/04 07:39:47;;;;;;;2.35;1.70;;;23.30;53.10;;;;;;5066022;28;20944;-74
2021/10/04 07:42:13;;;;;;;2.08;1.40;;;23.30;53.10;;;;;;5056537;28;20743;-76
2021/10/04 07:44:39;;;;;;;2.37;1.60;;;23.30;53.10;;;;;;5065965;28;20376;-75
2021/10/04 07:47:06;;;;;;;2.03;1.77;;;23.30;53.20;;;;;;5066061;28;20740;-74
2021/10/04 07:49:32;;;;;;;2.42;1.80;;;23.30;53.20;;;;;;5065704;28;20794;-75
2021/10/04 07:51:59;;;;;;;2.30;1.70;;;23.30;53.30;;;;;;5057819;28;20414;-75
2021/10/04 07:54:25;;;;;;;2.38;1.60;;;23.30;53.30;;;;;;5065647;28;20387;-74
2021/10/04 07:56:51;;;;;;;2.83;1.75;;;23.30;53.20;;;;;;5065745;28;20391;-75
2021/10/04 07:59:16;;;;;;;2.17;1.58;;;23.30;53.20;;;;;;5054603;28;20394;-74
2021/10/04 08:01:42;;;;;;;2.57;1.70;;;23.30;53.20;;;;;;5065549;28;20430;-74
2021/10/04 08:04:08;;;;;;;2.70;1.70;;;23.40;53.20;;;;;;5065129;28;20491;-75
2021/10/04 08:06:34;;;;;;;2.17;1.60;;;23.40;53.20;;;;;;5065703;28;20395;-75
2021/10/04 08:08:59;;;;;;;2.15;1.50;;;23.40;53.30;;;;;;5065279;28;20415;-74
2021/10/04 08:11:25;;;;;;;2.30;1.70;;;23.40;53.30;;;;;;5065677;28;20403;-74
2021/10/04 08:13:51;;;;;;;2.10;1.60;;;23.40;53.30;;;;;;5063888;28;20430;-74
2021/10/04 08:16:20;;;;;;;2.93;1.73;;;23.40;53.30;;;;;;5062125;28;20874;-74
2021/10/04 08:18:45;;;;;;;2.15;1.73;;;23.40;53.20;;;;;;5064091;28;20453;-75
2021/10/04 08:21:12;;;;;;;1.97;1.47;;;23.40;53.20;;;;;;5063729;28;20900;-74
2021/10/04 08:23:38;;;;;;;2.20;1.80;;;23.50;53.50;;;;;;5064325;28;20419;-75
2021/10/04 08:26:06;;;;;;;2.08;1.42;;;23.50;53.30;;;;;;5064858;28;20432;-74
2021/10/04 08:28:32;;;;;;;2.40;1.52;;;23.50;53.30;;;;;;5062370;28;20415;-74
2021/10/04 08:30:58;;;;;;;2.72;1.73;;;23.50;53.20;;;;;;5064722;28;20860;-75
2021/10/04 08:33:24;;;;;;;2.17;1.50;;;23.60;53.00;;;;;;5063191;28;20388;-75
2021/10/04 08:35:49;;;;;;;2.93;1.47;;;23.60;53.10;;;;;;5064146;28;20430;-76
2021/10/04 08:38:15;;;;;;;2.55;1.80;;;23.60;53.10;;;;;;5063308;28;20758;-74
2021/10/04 08:40:41;;;;;;;2.00;1.60;;;23.60;53.10;;;;;;5064535;28;20399;-74
2021/10/04 08:43:07;;;;;;;2.53;1.40;;;23.60;53.00;;;;;;5064920;28;20475;-74
2021/10/04 08:45:33;;;;;;;2.38;1.45;;;23.70;53.10;;;;;;5063838;28;20528;-75
2021/10/04 08:48:02;;;;;;;2.33;1.67;;;23.70;53.00;;;;;;5064691;28;20390;-75
2021/10/04 08:50:31;;;;;;;2.30;1.60;;;23.70;53.00;;;;;;5051877;28;20406;-74
2021/10/04 08:52:57;;;;;;;2.22;1.55;;;23.70;53.10;;;;;;5064521;28;20419;-74
2021/10/04 08:55:23;;;;;;;1.70;1.30;;;23.70;52.90;;;;;;5060664;28;20435;-74
2021/10/04 08:57:49;;;;;;;2.77;1.40;;;23.70;53.00;;;;;;5064544;28;20384;-75
2021/10/04 09:00:15;;;;;;;1.95;1.42;;;23.70;53.00;;;;;;5060008;28;20406;-74
2021/10/04 09:02:41;;;;;;;2.00;1.50;;;23.80;53.00;;;;;;5061260;28;20483;-74
2021/10/04 09:05:14;;;;;;;2.38;1.60;;;23.80;52.90;;;;;;5063009;28;20396;-74
2021/10/04 09:07:43;;;;;;;2.15;1.40;;;23.80;53.10;;;;;;5095829;28;20438;-74
2021/10/04 09:10:17;;;;;;;2.03;1.38;;;23.70;52.90;;;;;;5059825;28;20767;-75
2021/10/04 09:12:57;;;;;;;1.77;1.40;;;23.80;52.80;;;;;;5064740;28;20756;-75
2021/10/04 09:15:29;;;;;;;2.05;1.52;;;23.80;52.90;;;;;;5064503;28;20426;-75
2021/10/04 09:17:56;;;;;;;2.00;1.40;;;23.80;52.90;;;;;;5064287;28;20384;-75
2021/10/04 09:20:22;;;;;;;2.20;1.40;;;23.80;53.30;;;;;;5063646;28;20395;-76
2021/10/04 09:22:48;;;;;;;1.92;1.50;;;23.80;53.00;;;;;;5064387;28;20445;-75
2021/10/04 09:25:15;;;;;;;1.98;1.50;;;23.90;53.00;;;;;;5062718;28;20808;-75
2021/10/04 09:27:43;;;;;;;2.15;1.30;;;23.80;53.00;;;;;;5053960;28;20461;-74
2021/10/04 09:30:19;;;;;;;1.92;1.20;;;23.80;53.10;;;;;;5063432;28;20391;-75
2021/10/04 09:32:51;;;;;;;2.60;1.50;;;23.80;53.00;;;;;;5063962;28;20390;-75
2021/10/04 09:35:21;;;;;;;2.63;1.30;;;23.80;53.10;;;;;;5063532;28;20400;-75
2021/10/04 09:38:15;;;;;;;3.10;1.40;;;23.80;53.20;;;;;;5045914;28;20934;-74
2021/10/04 09:40:48;;;;;;;2.50;1.38;;;23.80;53.00;;;;;;5056449;28;20880;-75
2021/10/04 09:43:31;;;;;;;2.35;1.50;;;23.80;53.00;;;;;;5062196;28;20501;-75
2021/10/04 09:45:58;;;;;;;2.28;1.45;;;23.80;52.80;;;;;;5049465;28;20391;-74
2021/10/04 09:48:24;;;;;;;3.53;1.40;;;23.80;52.90;;;;;;5062971;28;20870;-74
2021/10/04 09:50:49;;;;;;;2.90;1.30;;;23.80;52.80;;;;;;5063644;28;20474;-75
2021/10/04 09:53:15;;;;;;;2.20;1.30;;;23.70;52.80;;;;;;5063412;28;20936;-75
2021/10/04 09:55:43;;;;;;;2.63;1.30;;;23.80;52.90;;;;;;5048792;28;20418;-74
2021/10/04 09:58:15;;;;;;;1.90;1.30;;;23.80;52.80;;;;;;5061621;28;20387;-74
2021/10/04 10:00:54;;;;;;;2.70;1.45;;;23.80;52.90;;;;;;5052886;28;20417;-74
2021/10/04 10:03:39;;;;;;;1.80;1.50;;;23.80;52.80;;;;;;5054565;28;20388;-75
2021/10/04 10:06:05;;;;;;;1.95;1.05;;;23.80;52.80;;;;;;5062513;28;20962;-74
2021/10/04 10:08:31;;;;;;;2.57;1.40;;;23.80;52.70;;;;;;5062886;28;20514;-75
2021/10/04 10:11:00;;;;;;;2.67;1.25;;;23.90;52.80;;;;;;5063449;28;20485;-74
2021/10/04 10:13:28;;;;;;;2.05;1.38;;;23.90;52.80;;;;;;5054124;28;20441;-74
2021/10/04 10:16:08;;;;;;;2.70;1.33;;;23.90;52.60;;;;;;5061608;28;20803;-75
2021/10/04 10:18:39;;;;;;;1.95;1.30;;;23.90;52.50;;;;;;5062816;28;20376;-75
2021/10/04 10:21:08;;;;;;;1.88;1.30;;;23.90;52.50;;;;;;5095137;28;20883;-74
2021/10/04 10:23:54;;;;;;;2.55;1.27;;;23.90;52.50;;;;;;5062946;28;20437;-75
2021/10/04 10:26:46;;;;;;;2.70;1.50;;;23.90;52.70;;;;;;5062135;28;20399;-76
2021/10/04 10:29:20;;;;;;;2.45;1.42;;;23.90;52.60;;;;;;5061171;28;20448;-74
2021/10/04 10:31:51;;;;;;;2.05;1.20;;;23.90;52.50;;;;;;5062669;28;20392;-75
2021/10/04 10:34:29;;;;;;;1.73;1.30;;;23.90;52.50;;;;;;5049508;28;20384;-74
2021/10/04 10:36:58;;;;;;;2.00;1.40;;;23.90;53.10;;;;;;5062539;28;20494;-75
2021/10/04 10:39:41;;;;;;;1.75;1.10;;;23.90;52.60;;;;;;5061365;28;20407;-74
2021/10/04 10:42:14;;;;;;;1.75;1.17;;;23.90;52.60;;;;;;5061030;28;20395;-75
2021/10/04 10:45:19;;;;;;;2.10;1.33;;;23.90;52.60;;;;;;5062581;28;20490;-75
2021/10/04 10:47:44;;;;;;;2.40;1.10;;;23.90;52.60;;;;;;5061977;28;20421;-75
2021/10/04 10:50:28;;;;;;;1.52;1.20;;;23.90;52.60;;;;;;5062517;28;20403;-76
2021/10/04 10:52:57;;;;;;;1.65;1.20;;;23.80;52.60;;;;;;5062467;28;20383;-75
2021/10/04 10:55:22;;;;;;;1.60;1.30;;;23.80;52.60;;;;;;5051365;28;20407;-75
2021/10/04 10:58:13;;;;;;;2.67;1.38;;;23.80;52.60;;;;;;5062530;28;20404;-75
2021/10/04 11:00:44;;;;;;;1.67;1.17;;;23.80;52.60;;;;;;5062421;28;20390;-75
2021/10/04 11:03:22;;;;;;;1.40;1.10;;;23.80;52.60;;;;;;5051664;28;20404;-75
2021/10/04 11:06:02;;;;;;;1.80;1.20;;;23.80;52.60;;;;;;5061067;28;20607;-75
2021/10/04 11:08:28;;;;;;;1.60;1.10;;;23.80;52.60;;;;;;5061041;28;20399;-75
2021/10/04 11:10:55;;;;;;;1.50;1.10;;;23.80;52.70;;;;;;5062111;28;20783;-75
2021/10/04 11:13:24;;;;;;;1.58;1.27;;;23.80;52.70;;;;;;5062033;28;20414;-75
2021/10/04 11:15:52;;;;;;;1.45;1.13;;;23.80;52.70;;;;;;5062375;28;20426;-75
2021/10/04 11:18:18;;;;;;;2.00;1.30;;;23.80;52.70;;;;;;5060513;28;20387;-75
2021/10/04 11:20:44;;;;;;;1.40;1.10;;;23.80;52.70;;;;;;5057249;28;20388;-75
2021/10/04 11:23:11;;;;;;;1.70;1.20;;;23.80;52.70;;;;;;5047434;28;20484;-74
2021/10/04 11:25:49;;;;;;;1.75;1.10;;;23.80;52.80;;;;;;5050070;28;20729;-75
2021/10/04 11:28:18;;;;;;;1.98;1.27;;;23.80;52.80;;;;;;5061687;28;20474;-74
2021/10/04 11:30:58;;;;;;;1.55;1.00;;;23.70;52.80;;;;;;5061983;28;20444;-75
2021/10/04 11:33:25;;;;;;;1.33;0.90;;;23.70;52.80;;;;;;5061945;28;20427;-74
2021/10/04 11:35:57;;;;;;;1.58;1.10;;;23.70;52.80;;;;;;5062389;28;20415;-74
2021/10/04 11:38:23;;;;;;;1.42;1.00;;;23.70;52.80;;;;;;5047739;28;20922;-74
2021/10/04 11:40:50;;;;;;;1.55;1.00;;;23.70;52.80;;;;;;5050435;28;20396;-75
2021/10/04 11:43:16;;;;;;;1.83;1.10;;;23.70;52.80;;;;;;5061847;28;20395;-75
2021/10/04 11:45:42;;;;;;;1.65;1.20;;;23.70;52.80;;;;;;5061889;28;20495;-74
2021/10/04 11:48:07;;;;;;;1.50;1.00;;;23.70;52.80;;;;;;5050188;28;20475;-75
2021/10/04 11:50:45;;;;;;;1.50;1.10;;;23.70;52.80;;;;;;5060075;28;20443;-75
2021/10/04 11:53:14;;;;;;;1.60;1.00;;;23.70;52.90;;;;;;5061893;28;20379;-75
2021/10/04 11:55:40;;;;;;;1.50;1.15;;;23.70;52.80;;;;;;5061949;28;20473;-75
2021/10/04 11:58:15;;;;;;;1.38;0.88;;;23.70;52.90;;;;;;5060315;28;20941;-75
2021/10/04 12:00:45;;;;;;;2.10;1.23;;;23.70;52.90;;;;;;5060846;28;20391;-74
2021/10/04 12:03:11;;;;;;;2.08;1.13;;;23.70;52.90;;;;;;5058751;28;20436;-75
2021/10/04 12:05:37;;;;;;;1.67;1.03;;;23.70;52.90;;;;;;5059420;28;20479;-75
2021/10/04 12:08:07;;;;;;;1.83;1.10;;;23.70;53.00;;;;;;5059924;28;20474;-75
2021/10/04 12:10:56;;;;;;;1.35;1.05;;;23.70;52.90;;;;;;5057584;28;20886;-74
2021/10/04 12:13:28;;;;;;;1.40;0.95;;;23.60;52.90;;;;;;5060105;28;20832;-74
2021/10/04 12:15:57;;;;;;;1.63;1.00;;;23.60;52.90;;;;;;5061065;28;21468;-74
2021/10/04 12:18:29;;;;;;;1.70;1.05;;;23.60;52.90;;;;;;5058921;28;20801;-75
2021/10/04 12:21:16;;;;;;;1.55;1.10;;;23.60;53.00;;;;;;5063536;28;20478;-75
2021/10/04 12:23:42;;;;;;;2.07;1.20;;;23.70;53.10;;;;;;5064434;28;20478;-74
2021/10/04 12:26:10;;;;;;;1.60;1.20;;;23.60;53.00;;;;;;5065584;28;20970;-74
2021/10/04 12:28:47;;;;;;;1.65;1.02;;;23.60;53.00;;;;;;5065876;28;20872;-75
2021/10/04 12:31:37;;;;;;;1.70;1.27;;;23.60;53.00;;;;;;5065371;28;20392;-75
2021/10/04 12:34:20;;;;;;;2.13;1.52;;;23.60;53.10;;;;;;5059902;28;20508;-75
2021/10/04 12:36:46;;;;;;;2.35;1.60;;;23.60;52.90;;;;;;5065460;28;20426;-74
2021/10/04 12:39:12;;;;;;;2.92;1.40;;;23.60;52.80;;;;;;5065651;28;20388;-74
2021/10/04 12:41:44;;;;;;;4.07;1.50;;;23.60;52.80;;;;;;5065832;28;20772;-74
2021/10/04 12:44:16;;;;;;;2.63;1.58;;;23.60;52.80;;;;;;5065451;28;20414;-74
2021/10/04 12:47:04;;;;;;;2.45;1.45;;;23.60;52.80;;;;;;5065697;28;20396;-75
2021/10/04 12:49:33;;;;;;;3.55;1.50;;;23.60;52.80;;;;;;5064482;28;20399;-75
2021/10/04 12:52:00;;;;;;;3.22;1.73;;;23.50;52.90;;;;;;5063763;28;20388;-74